sensor_id;sensor_type;location;lat;lon;timestamp;temperature;humidity
40754;DHT22;26460;42.732;-84.532;2024-03-07T00:00:10;18.50;39.70
40754;DHT22;26460;42.732;-84.532;2024-03-07T00:02:48;18.60;39.70
40754;DHT22;26460;42.732;-84.532;2024-03-07T00:05:19;18.60;39.60
40754;DHT22;26460;42.732;-84.532;2024-03-07T00:07:47;18.60;39.70
40754;DHT22;26460;42.732;-84.532;2024-03-07T00:10:14;18.70;39.80
40754;DHT22;26460;42.732;-84.532;2024-03-07T00:12:41;18.70;39.90
40754;DHT22;26460;42.732;-84.532;2024-03-07T00:15:12;18.70;39.90
40754;DHT22;26460;42.732;-84.532;2024-03-07T00:17:39;18.70;39.80
40754;DHT22;26460;42.732;-84.532;2024-03-07T00:20:06;18.70;39.80
40754;DHT22;26460;42.732;-84.532;2024-03-07T00:22:41;18.70;39.80
40754;DHT22;26460;42.732;-84.532;2024-03-07T00:25:08;18.80;39.80
40754;DHT22;26460;42.732;-84.532;2024-03-07T00:27:36;18.80;39.70
40754;DHT22;26460;42.732;-84.532;2024-03-07T00:30:06;18.80;39.70
40754;DHT22;26460;42.732;-84.532;2024-03-07T00:32:35;18.80;39.70
40754;DHT22;26460;42.732;-84.532;2024-03-07T00:35:06;18.90;39.80
40754;DHT22;26460;42.732;-84.532;2024-03-07T00:37:35;18.90;39.80
40754;DHT22;26460;42.732;-84.532;2024-03-07T00:40:03;18.90;39.70
40754;DHT22;26460;42.732;-84.532;2024-03-07T00:42:29;18.90;39.70
40754;DHT22;26460;42.732;-84.532;2024-03-07T00:44:56;19.00;39.70
40754;DHT22;26460;42.732;-84.532;2024-03-07T00:47:23;19.00;39.70
40754;DHT22;26460;42.732;-84.532;2024-03-07T00:49:50;19.00;39.70
40754;DHT22;26460;42.732;-84.532;2024-03-07T00:52:16;19.00;39.70
40754;DHT22;26460;42.732;-84.532;2024-03-07T00:54:43;19.00;39.70
40754;DHT22;26460;42.732;-84.532;2024-03-07T00:57:09;19.10;39.70
40754;DHT22;26460;42.732;-84.532;2024-03-07T00:59:36;19.10;39.70
40754;DHT22;26460;42.732;-84.532;2024-03-07T01:02:02;19.10;39.70
40754;DHT22;26460;42.732;-84.532;2024-03-07T01:04:29;19.10;39.60
40754;DHT22;26460;42.732;-84.532;2024-03-07T01:07:00;19.20;39.70
40754;DHT22;26460;42.732;-84.532;2024-03-07T01:09:27;19.10;39.60
40754;DHT22;26460;42.732;-84.532;2024-03-07T01:11:57;19.20;39.60
40754;DHT22;26460;42.732;-84.532;2024-03-07T01:14:25;19.20;39.60
40754;DHT22;26460;42.732;-84.532;2024-03-07T01:16:52;19.10;39.60
40754;DHT22;26460;42.732;-84.532;2024-03-07T01:19:19;19.10;39.70
40754;DHT22;26460;42.732;-84.532;2024-03-07T01:21:46;19.20;39.60
40754;DHT22;26460;42.732;-84.532;2024-03-07T01:24:12;19.20;39.50
40754;DHT22;26460;42.732;-84.532;2024-03-07T01:26:44;19.30;39.50
40754;DHT22;26460;42.732;-84.532;2024-03-07T01:29:11;19.30;39.50
40754;DHT22;26460;42.732;-84.532;2024-03-07T01:31:37;19.30;39.40
40754;DHT22;26460;42.732;-84.532;2024-03-07T01:34:04;19.30;39.30
40754;DHT22;26460;42.732;-84.532;2024-03-07T01:36:30;19.30;39.20
40754;DHT22;26460;42.732;-84.532;2024-03-07T01:38:57;19.30;39.20
40754;DHT22;26460;42.732;-84.532;2024-03-07T01:41:23;19.30;39.20
40754;DHT22;26460;42.732;-84.532;2024-03-07T01:43:50;19.30;39.20
40754;DHT22;26460;42.732;-84.532;2024-03-07T01:46:17;19.30;39.10
40754;DHT22;26460;42.732;-84.532;2024-03-07T01:48:43;19.30;39.20
40754;DHT22;26460;42.732;-84.532;2024-03-07T01:51:10;19.30;39.20
40754;DHT22;26460;42.732;-84.532;2024-03-07T01:53:36;19.30;39.20
40754;DHT22;26460;42.732;-84.532;2024-03-07T01:56:06;19.30;39.20
40754;DHT22;26460;42.732;-84.532;2024-03-07T01:58:34;19.40;39.20
40754;DHT22;26460;42.732;-84.532;2024-03-07T02:01:02;19.40;39.20
40754;DHT22;26460;42.732;-84.532;2024-03-07T02:03:28;19.40;39.10
40754;DHT22;26460;42.732;-84.532;2024-03-07T02:05:56;19.40;39.20
40754;DHT22;26460;42.732;-84.532;2024-03-07T02:08:22;19.40;39.20
40754;DHT22;26460;42.732;-84.532;2024-03-07T02:10:49;19.50;39.20
40754;DHT22;26460;42.732;-84.532;2024-03-07T02:13:16;19.50;39.10
40754;DHT22;26460;42.732;-84.532;2024-03-07T02:15:42;19.50;39.10
40754;DHT22;26460;42.732;-84.532;2024-03-07T02:18:11;19.50;39.00
40754;DHT22;26460;42.732;-84.532;2024-03-07T02:20:45;19.50;38.90
40754;DHT22;26460;42.732;-84.532;2024-03-07T02:23:17;19.50;38.90
40754;DHT22;26460;42.732;-84.532;2024-03-07T02:25:44;19.50;38.80
40754;DHT22;26460;42.732;-84.532;2024-03-07T02:28:11;19.50;38.80
40754;DHT22;26460;42.732;-84.532;2024-03-07T02:30:37;19.60;38.80
40754;DHT22;26460;42.732;-84.532;2024-03-07T02:33:04;19.60;38.80
40754;DHT22;26460;42.732;-84.532;2024-03-07T02:35:34;19.60;38.80
40754;DHT22;26460;42.732;-84.532;2024-03-07T02:38:04;19.60;38.80
40754;DHT22;26460;42.732;-84.532;2024-03-07T02:40:34;19.60;38.70
40754;DHT22;26460;42.732;-84.532;2024-03-07T02:43:01;19.60;38.70
40754;DHT22;26460;42.732;-84.532;2024-03-07T02:45:31;19.70;38.70
40754;DHT22;26460;42.732;-84.532;2024-03-07T02:47:57;19.70;38.70
40754;DHT22;26460;42.732;-84.532;2024-03-07T02:50:24;19.70;38.70
40754;DHT22;26460;42.732;-84.532;2024-03-07T02:52:51;19.70;38.70
40754;DHT22;26460;42.732;-84.532;2024-03-07T02:55:18;19.70;38.60
40754;DHT22;26460;42.732;-84.532;2024-03-07T02:57:45;19.70;38.60
40754;DHT22;26460;42.732;-84.532;2024-03-07T03:00:12;19.80;38.60
40754;DHT22;26460;42.732;-84.532;2024-03-07T03:02:57;19.80;38.50
40754;DHT22;26460;42.732;-84.532;2024-03-07T03:05:23;19.80;38.50
40754;DHT22;26460;42.732;-84.532;2024-03-07T03:07:50;19.80;38.50
40754;DHT22;26460;42.732;-84.532;2024-03-07T03:10:24;19.80;38.50
40754;DHT22;26460;42.732;-84.532;2024-03-07T03:13:00;19.80;38.40
40754;DHT22;26460;42.732;-84.532;2024-03-07T03:15:27;19.80;38.40
40754;DHT22;26460;42.732;-84.532;2024-03-07T03:17:53;19.80;38.30
40754;DHT22;26460;42.732;-84.532;2024-03-07T03:20:20;19.80;38.30
40754;DHT22;26460;42.732;-84.532;2024-03-07T03:22:52;19.90;38.30
40754;DHT22;26460;42.732;-84.532;2024-03-07T03:25:20;19.90;38.30
40754;DHT22;26460;42.732;-84.532;2024-03-07T03:27:47;19.90;38.20
40754;DHT22;26460;42.732;-84.532;2024-03-07T03:30:15;19.90;38.10
40754;DHT22;26460;42.732;-84.532;2024-03-07T03:32:50;19.90;38.10
40754;DHT22;26460;42.732;-84.532;2024-03-07T03:35:17;19.90;38.10
40754;DHT22;26460;42.732;-84.532;2024-03-07T03:37:44;19.90;38.00
40754;DHT22;26460;42.732;-84.532;2024-03-07T03:40:11;20.00;38.10
40754;DHT22;26460;42.732;-84.532;2024-03-07T03:42:42;20.00;38.00
40754;DHT22;26460;42.732;-84.532;2024-03-07T03:45:10;20.00;38.00
40754;DHT22;26460;42.732;-84.532;2024-03-07T03:47:42;20.00;38.00
40754;DHT22;26460;42.732;-84.532;2024-03-07T03:50:11;20.00;38.00
40754;DHT22;26460;42.732;-84.532;2024-03-07T03:52:37;20.00;37.90
40754;DHT22;26460;42.732;-84.532;2024-03-07T03:55:05;20.00;37.90
40754;DHT22;26460;42.732;-84.532;2024-03-07T03:57:33;20.00;37.90
40754;DHT22;26460;42.732;-84.532;2024-03-07T04:00:00;20.00;37.80
40754;DHT22;26460;42.732;-84.532;2024-03-07T04:02:27;20.00;37.80
40754;DHT22;26460;42.732;-84.532;2024-03-07T04:04:53;20.00;37.80
40754;DHT22;26460;42.732;-84.532;2024-03-07T04:07:20;20.00;37.70
40754;DHT22;26460;42.732;-84.532;2024-03-07T04:09:47;20.00;37.70
40754;DHT22;26460;42.732;-84.532;2024-03-07T04:12:14;20.00;37.70
40754;DHT22;26460;42.732;-84.532;2024-03-07T04:14:42;20.00;37.60
40754;DHT22;26460;42.732;-84.532;2024-03-07T04:17:10;20.10;37.60
40754;DHT22;26460;42.732;-84.532;2024-03-07T04:19:41;20.10;37.60
40754;DHT22;26460;42.732;-84.532;2024-03-07T04:22:08;20.10;37.50
40754;DHT22;26460;42.732;-84.532;2024-03-07T04:24:35;20.10;37.50
40754;DHT22;26460;42.732;-84.532;2024-03-07T04:27:03;20.10;37.50
40754;DHT22;26460;42.732;-84.532;2024-03-07T04:29:33;20.10;37.50
40754;DHT22;26460;42.732;-84.532;2024-03-07T04:32:01;20.10;37.40
40754;DHT22;26460;42.732;-84.532;2024-03-07T04:34:28;20.20;37.40
40754;DHT22;26460;42.732;-84.532;2024-03-07T04:37:00;20.10;37.40
40754;DHT22;26460;42.732;-84.532;2024-03-07T04:39:33;20.20;37.40
40754;DHT22;26460;42.732;-84.532;2024-03-07T04:42:03;20.20;37.40
40754;DHT22;26460;42.732;-84.532;2024-03-07T04:44:33;20.20;37.20
40754;DHT22;26460;42.732;-84.532;2024-03-07T04:47:03;20.20;37.20
40754;DHT22;26460;42.732;-84.532;2024-03-07T04:49:31;20.20;37.20
40754;DHT22;26460;42.732;-84.532;2024-03-07T04:51:59;20.20;37.20
40754;DHT22;26460;42.732;-84.532;2024-03-07T04:54:28;20.20;37.20
40754;DHT22;26460;42.732;-84.532;2024-03-07T04:56:55;20.30;37.10
40754;DHT22;26460;42.732;-84.532;2024-03-07T04:59:22;20.20;37.10
40754;DHT22;26460;42.732;-84.532;2024-03-07T05:01:49;20.30;37.10
40754;DHT22;26460;42.732;-84.532;2024-03-07T05:04:17;20.30;37.10
40754;DHT22;26460;42.732;-84.532;2024-03-07T05:06:45;20.30;37.00
40754;DHT22;26460;42.732;-84.532;2024-03-07T05:09:14;20.20;37.00
40754;DHT22;26460;42.732;-84.532;2024-03-07T05:11:51;20.30;37.00
40754;DHT22;26460;42.732;-84.532;2024-03-07T05:14:19;20.30;36.90
40754;DHT22;26460;42.732;-84.532;2024-03-07T05:16:46;20.30;36.80
40754;DHT22;26460;42.732;-84.532;2024-03-07T05:19:14;20.30;36.80
40754;DHT22;26460;42.732;-84.532;2024-03-07T05:21:41;20.30;36.80
40754;DHT22;26460;42.732;-84.532;2024-03-07T05:24:08;20.40;36.80
40754;DHT22;26460;42.732;-84.532;2024-03-07T05:26:35;20.40;36.70
40754;DHT22;26460;42.732;-84.532;2024-03-07T05:29:09;20.40;36.70
40754;DHT22;26460;42.732;-84.532;2024-03-07T05:31:37;20.40;36.70
40754;DHT22;26460;42.732;-84.532;2024-03-07T05:34:06;20.40;37.30
40754;DHT22;26460;42.732;-84.532;2024-03-07T05:36:35;20.40;36.60
40754;DHT22;26460;42.732;-84.532;2024-03-07T05:39:02;20.40;36.60
40754;DHT22;26460;42.732;-84.532;2024-03-07T05:41:35;20.50;36.60
40754;DHT22;26460;42.732;-84.532;2024-03-07T05:44:01;20.50;36.50
40754;DHT22;26460;42.732;-84.532;2024-03-07T05:46:28;20.50;36.50
40754;DHT22;26460;42.732;-84.532;2024-03-07T05:48:54;20.50;36.50
40754;DHT22;26460;42.732;-84.532;2024-03-07T05:51:23;20.40;36.40
40754;DHT22;26460;42.732;-84.532;2024-03-07T05:53:50;20.50;36.40
40754;DHT22;26460;42.732;-84.532;2024-03-07T05:56:17;20.50;36.40
40754;DHT22;26460;42.732;-84.532;2024-03-07T05:58:44;20.50;36.30
40754;DHT22;26460;42.732;-84.532;2024-03-07T06:01:11;20.50;36.30
40754;DHT22;26460;42.732;-84.532;2024-03-07T06:03:39;20.50;36.20
40754;DHT22;26460;42.732;-84.532;2024-03-07T06:06:05;20.50;36.20
40754;DHT22;26460;42.732;-84.532;2024-03-07T06:08:37;20.50;36.10
40754;DHT22;26460;42.732;-84.532;2024-03-07T06:11:06;20.50;36.20
40754;DHT22;26460;42.732;-84.532;2024-03-07T06:13:32;20.50;36.20
40754;DHT22;26460;42.732;-84.532;2024-03-07T06:15:59;20.50;36.10
40754;DHT22;26460;42.732;-84.532;2024-03-07T06:18:30;20.50;36.10
40754;DHT22;26460;42.732;-84.532;2024-03-07T06:20:57;20.60;36.00
40754;DHT22;26460;42.732;-84.532;2024-03-07T06:23:24;20.60;36.00
40754;DHT22;26460;42.732;-84.532;2024-03-07T06:25:54;20.60;36.00
40754;DHT22;26460;42.732;-84.532;2024-03-07T06:28:22;20.60;35.90
40754;DHT22;26460;42.732;-84.532;2024-03-07T06:30:48;20.60;36.00
40754;DHT22;26460;42.732;-84.532;2024-03-07T06:33:15;20.60;35.90
40754;DHT22;26460;42.732;-84.532;2024-03-07T06:35:45;20.60;35.80
40754;DHT22;26460;42.732;-84.532;2024-03-07T06:38:12;20.60;35.80
40754;DHT22;26460;42.732;-84.532;2024-03-07T06:40:40;20.60;35.70
40754;DHT22;26460;42.732;-84.532;2024-03-07T06:43:07;20.70;35.70
40754;DHT22;26460;42.732;-84.532;2024-03-07T06:45:39;20.70;35.70
40754;DHT22;26460;42.732;-84.532;2024-03-07T06:48:08;20.70;35.60
40754;DHT22;26460;42.732;-84.532;2024-03-07T06:50:35;20.70;35.60
40754;DHT22;26460;42.732;-84.532;2024-03-07T06:53:05;20.70;35.60
40754;DHT22;26460;42.732;-84.532;2024-03-07T06:55:35;20.70;35.60
40754;DHT22;26460;42.732;-84.532;2024-03-07T06:58:02;20.70;35.50
40754;DHT22;26460;42.732;-84.532;2024-03-07T07:00:31;20.70;35.50
40754;DHT22;26460;42.732;-84.532;2024-03-07T07:03:02;20.70;35.50
40754;DHT22;26460;42.732;-84.532;2024-03-07T07:05:32;20.80;35.50
40754;DHT22;26460;42.732;-84.532;2024-03-07T07:08:00;20.70;35.40
40754;DHT22;26460;42.732;-84.532;2024-03-07T07:10:27;20.80;35.50
40754;DHT22;26460;42.732;-84.532;2024-03-07T07:12:53;20.70;35.30
40754;DHT22;26460;42.732;-84.532;2024-03-07T07:15:21;20.70;35.30
40754;DHT22;26460;42.732;-84.532;2024-03-07T07:17:48;20.80;35.30
40754;DHT22;26460;42.732;-84.532;2024-03-07T07:20:16;20.80;35.30
40754;DHT22;26460;42.732;-84.532;2024-03-07T07:22:45;20.80;35.40
40754;DHT22;26460;42.732;-84.532;2024-03-07T07:25:15;20.80;35.20
40754;DHT22;26460;42.732;-84.532;2024-03-07T07:27:47;20.80;35.20
40754;DHT22;26460;42.732;-84.532;2024-03-07T07:30:16;20.80;35.20
40754;DHT22;26460;42.732;-84.532;2024-03-07T07:32:44;20.80;35.10
40754;DHT22;26460;42.732;-84.532;2024-03-07T07:35:11;20.80;35.10
40754;DHT22;26460;42.732;-84.532;2024-03-07T07:37:39;20.90;35.00
40754;DHT22;26460;42.732;-84.532;2024-03-07T07:40:10;20.80;35.00
40754;DHT22;26460;42.732;-84.532;2024-03-07T07:42:41;20.80;34.90
40754;DHT22;26460;42.732;-84.532;2024-03-07T07:45:11;20.90;34.90
40754;DHT22;26460;42.732;-84.532;2024-03-07T07:47:42;20.90;34.90
40754;DHT22;26460;42.732;-84.532;2024-03-07T07:50:13;20.90;34.80
40754;DHT22;26460;42.732;-84.532;2024-03-07T07:52:41;20.90;34.80
40754;DHT22;26460;42.732;-84.532;2024-03-07T07:55:08;20.90;34.80
40754;DHT22;26460;42.732;-84.532;2024-03-07T07:57:46;20.90;34.70
40754;DHT22;26460;42.732;-84.532;2024-03-07T08:00:15;20.90;34.70
40754;DHT22;26460;42.732;-84.532;2024-03-07T08:02:52;20.90;34.80
40754;DHT22;26460;42.732;-84.532;2024-03-07T08:05:20;20.90;34.70
40754;DHT22;26460;42.732;-84.532;2024-03-07T08:07:53;20.90;34.70
40754;DHT22;26460;42.732;-84.532;2024-03-07T08:10:23;20.90;34.60
40754;DHT22;26460;42.732;-84.532;2024-03-07T08:12:51;20.90;34.50
40754;DHT22;26460;42.732;-84.532;2024-03-07T08:15:18;20.90;34.60
40754;DHT22;26460;42.732;-84.532;2024-03-07T08:17:47;20.90;34.60
40754;DHT22;26460;42.732;-84.532;2024-03-07T08:20:19;20.90;34.50
40754;DHT22;26460;42.732;-84.532;2024-03-07T08:22:49;21.00;34.50
40754;DHT22;26460;42.732;-84.532;2024-03-07T08:25:20;21.00;34.50
40754;DHT22;26460;42.732;-84.532;2024-03-07T08:27:51;21.00;34.50
40754;DHT22;26460;42.732;-84.532;2024-03-07T08:30:18;21.00;34.40
40754;DHT22;26460;42.732;-84.532;2024-03-07T08:35:12;21.00;34.40
40754;DHT22;26460;42.732;-84.532;2024-03-07T08:37:40;21.00;34.40
40754;DHT22;26460;42.732;-84.532;2024-03-07T08:40:08;21.00;34.40
40754;DHT22;26460;42.732;-84.532;2024-03-07T08:42:37;21.00;34.30
40754;DHT22;26460;42.732;-84.532;2024-03-07T08:45:04;21.00;34.30
40754;DHT22;26460;42.732;-84.532;2024-03-07T08:47:32;21.00;34.20
40754;DHT22;26460;42.732;-84.532;2024-03-07T08:49:59;21.00;34.30
40754;DHT22;26460;42.732;-84.532;2024-03-07T08:52:27;21.00;34.30
40754;DHT22;26460;42.732;-84.532;2024-03-07T08:54:54;21.10;34.20
40754;DHT22;26460;42.732;-84.532;2024-03-07T08:57:21;21.10;34.20
40754;DHT22;26460;42.732;-84.532;2024-03-07T08:59:48;21.10;34.20
40754;DHT22;26460;42.732;-84.532;2024-03-07T09:02:15;21.00;34.20
40754;DHT22;26460;42.732;-84.532;2024-03-07T09:04:42;21.00;34.20
40754;DHT22;26460;42.732;-84.532;2024-03-07T09:07:09;21.00;34.10
40754;DHT22;26460;42.732;-84.532;2024-03-07T09:09:36;21.10;34.60
40754;DHT22;26460;42.732;-84.532;2024-03-07T09:12:02;21.10;34.10
40754;DHT22;26460;42.732;-84.532;2024-03-07T09:14:29;21.10;34.10
40754;DHT22;26460;42.732;-84.532;2024-03-07T09:16:56;21.10;34.10
40754;DHT22;26460;42.732;-84.532;2024-03-07T09:19:23;21.10;34.00
40754;DHT22;26460;42.732;-84.532;2024-03-07T09:21:53;21.10;34.00
40754;DHT22;26460;42.732;-84.532;2024-03-07T09:24:20;21.10;34.00
40754;DHT22;26460;42.732;-84.532;2024-03-07T09:26:50;21.10;34.00
40754;DHT22;26460;42.732;-84.532;2024-03-07T09:29:18;21.10;33.90
40754;DHT22;26460;42.732;-84.532;2024-03-07T09:31:46;21.10;33.90
40754;DHT22;26460;42.732;-84.532;2024-03-07T09:34:13;21.10;33.90
40754;DHT22;26460;42.732;-84.532;2024-03-07T09:36:41;21.10;33.90
40754;DHT22;26460;42.732;-84.532;2024-03-07T09:39:10;21.10;33.90
40754;DHT22;26460;42.732;-84.532;2024-03-07T09:41:39;21.10;33.80
40754;DHT22;26460;42.732;-84.532;2024-03-07T09:44:10;21.20;33.80
40754;DHT22;26460;42.732;-84.532;2024-03-07T09:46:39;21.20;33.70
40754;DHT22;26460;42.732;-84.532;2024-03-07T09:49:07;21.20;33.80
40754;DHT22;26460;42.732;-84.532;2024-03-07T09:51:36;21.20;33.70
40754;DHT22;26460;42.732;-84.532;2024-03-07T09:54:03;21.20;33.70
40754;DHT22;26460;42.732;-84.532;2024-03-07T09:56:31;21.20;33.70
40754;DHT22;26460;42.732;-84.532;2024-03-07T09:58:59;21.20;33.70
40754;DHT22;26460;42.732;-84.532;2024-03-07T10:01:27;21.20;33.70
40754;DHT22;26460;42.732;-84.532;2024-03-07T10:03:59;21.20;33.70
40754;DHT22;26460;42.732;-84.532;2024-03-07T10:06:36;21.20;33.70
40754;DHT22;26460;42.732;-84.532;2024-03-07T10:09:03;21.20;33.60
40754;DHT22;26460;42.732;-84.532;2024-03-07T10:11:30;21.20;33.60
40754;DHT22;26460;42.732;-84.532;2024-03-07T10:13:57;21.20;33.60
40754;DHT22;26460;42.732;-84.532;2024-03-07T10:16:24;21.20;33.60
40754;DHT22;26460;42.732;-84.532;2024-03-07T10:18:50;21.20;33.60
40754;DHT22;26460;42.732;-84.532;2024-03-07T10:21:20;21.30;33.60
40754;DHT22;26460;42.732;-84.532;2024-03-07T10:23:48;21.30;33.60
40754;DHT22;26460;42.732;-84.532;2024-03-07T10:26:15;21.30;33.50
40754;DHT22;26460;42.732;-84.532;2024-03-07T10:28:43;21.30;33.50
40754;DHT22;26460;42.732;-84.532;2024-03-07T10:31:10;21.30;33.40
40754;DHT22;26460;42.732;-84.532;2024-03-07T10:33:39;21.30;33.40
40754;DHT22;26460;42.732;-84.532;2024-03-07T10:36:06;21.30;33.40
40754;DHT22;26460;42.732;-84.532;2024-03-07T10:38:39;21.30;33.40
40754;DHT22;26460;42.732;-84.532;2024-03-07T10:41:06;21.30;33.40
40754;DHT22;26460;42.732;-84.532;2024-03-07T10:43:36;21.30;33.40
40754;DHT22;26460;42.732;-84.532;2024-03-07T10:46:08;21.30;33.40
40754;DHT22;26460;42.732;-84.532;2024-03-07T10:48:38;21.30;33.40
40754;DHT22;26460;42.732;-84.532;2024-03-07T10:51:21;21.40;33.30
40754;DHT22;26460;42.732;-84.532;2024-03-07T10:59:25;21.40;33.30
40754;DHT22;26460;42.732;-84.532;2024-03-07T11:04:55;21.40;33.20
40754;DHT22;26460;42.732;-84.532;2024-03-07T11:07:23;21.40;33.40
40754;DHT22;26460;42.732;-84.532;2024-03-07T11:09:51;21.40;33.40
40754;DHT22;26460;42.732;-84.532;2024-03-07T11:12:21;21.40;33.30
40754;DHT22;26460;42.732;-84.532;2024-03-07T11:14:50;21.40;33.30
40754;DHT22;26460;42.732;-84.532;2024-03-07T11:17:19;21.40;33.20
40754;DHT22;26460;42.732;-84.532;2024-03-07T11:19:46;21.40;33.20
40754;DHT22;26460;42.732;-84.532;2024-03-07T11:22:29;21.40;33.20
40754;DHT22;26460;42.732;-84.532;2024-03-07T11:25:05;21.40;33.20
40754;DHT22;26460;42.732;-84.532;2024-03-07T11:27:40;21.50;33.20
40754;DHT22;26460;42.732;-84.532;2024-03-07T11:30:17;21.50;33.20
40754;DHT22;26460;42.732;-84.532;2024-03-07T11:32:44;21.50;33.20
40754;DHT22;26460;42.732;-84.532;2024-03-07T11:35:14;21.50;33.80
40754;DHT22;26460;42.732;-84.532;2024-03-07T11:37:42;21.50;33.10
40754;DHT22;26460;42.732;-84.532;2024-03-07T11:42:48;21.50;33.20
40754;DHT22;26460;42.732;-84.532;2024-03-07T11:45:15;21.50;33.10
40754;DHT22;26460;42.732;-84.532;2024-03-07T11:47:56;21.50;33.10
40754;DHT22;26460;42.732;-84.532;2024-03-07T11:50:41;21.50;33.10
40754;DHT22;26460;42.732;-84.532;2024-03-07T11:53:09;21.50;33.00
40754;DHT22;26460;42.732;-84.532;2024-03-07T11:55:37;21.50;33.00
40754;DHT22;26460;42.732;-84.532;2024-03-07T11:58:18;21.50;33.00
40754;DHT22;26460;42.732;-84.532;2024-03-07T12:00:49;21.50;33.00
40754;DHT22;26460;42.732;-84.532;2024-03-07T12:03:19;21.50;33.00
40754;DHT22;26460;42.732;-84.532;2024-03-07T12:05:51;21.60;33.00
40754;DHT22;26460;42.732;-84.532;2024-03-07T12:08:19;21.60;33.00
40754;DHT22;26460;42.732;-84.532;2024-03-07T12:10:49;21.60;33.00
40754;DHT22;26460;42.732;-84.532;2024-03-07T12:13:20;21.60;32.90
40754;DHT22;26460;42.732;-84.532;2024-03-07T12:15:47;21.60;33.00
40754;DHT22;26460;42.732;-84.532;2024-03-07T12:18:13;21.60;32.90
40754;DHT22;26460;42.732;-84.532;2024-03-07T12:20:44;21.60;33.00
40754;DHT22;26460;42.732;-84.532;2024-03-07T12:23:23;21.60;33.00
40754;DHT22;26460;42.732;-84.532;2024-03-07T12:26:01;21.60;32.90
40754;DHT22;26460;42.732;-84.532;2024-03-07T12:28:28;21.60;33.00
40754;DHT22;26460;42.732;-84.532;2024-03-07T12:30:59;21.60;33.00
40754;DHT22;26460;42.732;-84.532;2024-03-07T12:33:29;21.70;32.90
40754;DHT22;26460;42.732;-84.532;2024-03-07T12:35:57;21.60;33.50
40754;DHT22;26460;42.732;-84.532;2024-03-07T12:38:32;21.70;32.90
40754;DHT22;26460;42.732;-84.532;2024-03-07T12:41:03;21.60;32.90
40754;DHT22;26460;42.732;-84.532;2024-03-07T12:43:48;21.70;32.90
40754;DHT22;26460;42.732;-84.532;2024-03-07T12:46:16;21.70;32.90
40754;DHT22;26460;42.732;-84.532;2024-03-07T12:48:43;21.70;32.80
40754;DHT22;26460;42.732;-84.532;2024-03-07T12:51:11;21.80;32.80
40754;DHT22;26460;42.732;-84.532;2024-03-07T12:53:43;21.80;32.80
40754;DHT22;26460;42.732;-84.532;2024-03-07T12:56:09;21.80;32.80
40754;DHT22;26460;42.732;-84.532;2024-03-07T12:58:36;21.80;32.80
40754;DHT22;26460;42.732;-84.532;2024-03-07T13:01:02;21.80;32.90
40754;DHT22;26460;42.732;-84.532;2024-03-07T13:03:29;21.80;32.80
40754;DHT22;26460;42.732;-84.532;2024-03-07T13:05:58;21.80;32.90
40754;DHT22;26460;42.732;-84.532;2024-03-07T13:08:28;21.80;32.90
40754;DHT22;26460;42.732;-84.532;2024-03-07T13:10:57;21.80;32.90
40754;DHT22;26460;42.732;-84.532;2024-03-07T13:13:25;21.80;32.90
40754;DHT22;26460;42.732;-84.532;2024-03-07T13:15:51;21.80;32.90
40754;DHT22;26460;42.732;-84.532;2024-03-07T13:18:21;21.80;32.80
40754;DHT22;26460;42.732;-84.532;2024-03-07T13:20:47;21.90;32.80
40754;DHT22;26460;42.732;-84.532;2024-03-07T13:23:14;21.90;32.70
40754;DHT22;26460;42.732;-84.532;2024-03-07T13:25:41;21.90;32.70
40754;DHT22;26460;42.732;-84.532;2024-03-07T13:28:13;21.90;32.60
40754;DHT22;26460;42.732;-84.532;2024-03-07T13:30:43;21.90;32.70
40754;DHT22;26460;42.732;-84.532;2024-03-07T13:33:11;21.90;32.70
40754;DHT22;26460;42.732;-84.532;2024-03-07T13:35:41;21.90;32.80
40754;DHT22;26460;42.732;-84.532;2024-03-07T13:38:08;21.90;32.70
40754;DHT22;26460;42.732;-84.532;2024-03-07T13:40:35;21.90;32.80
40754;DHT22;26460;42.732;-84.532;2024-03-07T13:43:05;21.90;32.80
40754;DHT22;26460;42.732;-84.532;2024-03-07T13:45:33;21.90;32.80
40754;DHT22;26460;42.732;-84.532;2024-03-07T13:48:06;21.90;32.70
40754;DHT22;26460;42.732;-84.532;2024-03-07T13:50:34;21.90;32.70
40754;DHT22;26460;42.732;-84.532;2024-03-07T13:53:01;21.90;32.70
40754;DHT22;26460;42.732;-84.532;2024-03-07T14:01:22;22.00;32.60
40754;DHT22;26460;42.732;-84.532;2024-03-07T14:18:49;22.00;32.50
40754;DHT22;26460;42.732;-84.532;2024-03-07T14:27:18;22.10;32.60
40754;DHT22;26460;42.732;-84.532;2024-03-07T14:30:24;22.10;32.60
40754;DHT22;26460;42.732;-84.532;2024-03-07T14:33:00;22.10;32.60
40754;DHT22;26460;42.732;-84.532;2024-03-07T14:41:13;22.10;32.50
40754;DHT22;26460;42.732;-84.532;2024-03-07T14:43:41;22.20;32.50
40754;DHT22;26460;42.732;-84.532;2024-03-07T14:46:10;22.10;32.60
40754;DHT22;26460;42.732;-84.532;2024-03-07T14:48:39;22.10;32.60
40754;DHT22;26460;42.732;-84.532;2024-03-07T14:51:08;22.20;32.60
40754;DHT22;26460;42.732;-84.532;2024-03-07T14:53:35;22.20;32.50
40754;DHT22;26460;42.732;-84.532;2024-03-07T14:56:02;22.20;32.60
40754;DHT22;26460;42.732;-84.532;2024-03-07T14:58:31;22.20;32.50
40754;DHT22;26460;42.732;-84.532;2024-03-07T15:00:57;22.20;32.50
40754;DHT22;26460;42.732;-84.532;2024-03-07T15:03:25;22.20;32.50
40754;DHT22;26460;42.732;-84.532;2024-03-07T15:05:54;22.30;32.50
40754;DHT22;26460;42.732;-84.532;2024-03-07T15:08:21;22.30;32.40
40754;DHT22;26460;42.732;-84.532;2024-03-07T15:10:55;22.30;32.50
40754;DHT22;26460;42.732;-84.532;2024-03-07T15:13:22;22.20;32.50
40754;DHT22;26460;42.732;-84.532;2024-03-07T15:15:49;22.20;32.50
40754;DHT22;26460;42.732;-84.532;2024-03-07T15:18:15;22.30;32.60
40754;DHT22;26460;42.732;-84.532;2024-03-07T15:20:42;22.30;32.60
40754;DHT22;26460;42.732;-84.532;2024-03-07T15:23:08;22.30;32.60
40754;DHT22;26460;42.732;-84.532;2024-03-07T15:25:35;22.30;32.50
40754;DHT22;26460;42.732;-84.532;2024-03-07T15:28:03;22.30;32.50
40754;DHT22;26460;42.732;-84.532;2024-03-07T15:30:31;22.30;32.50
40754;DHT22;26460;42.732;-84.532;2024-03-07T15:33:01;22.30;32.50
40754;DHT22;26460;42.732;-84.532;2024-03-07T15:35:28;22.40;32.60
40754;DHT22;26460;42.732;-84.532;2024-03-07T15:37:57;22.40;32.50
40754;DHT22;26460;42.732;-84.532;2024-03-07T15:40:23;22.40;32.50
40754;DHT22;26460;42.732;-84.532;2024-03-07T15:42:51;22.40;32.50
40754;DHT22;26460;42.732;-84.532;2024-03-07T15:45:19;22.40;32.50
40754;DHT22;26460;42.732;-84.532;2024-03-07T15:47:58;22.40;32.50
40754;DHT22;26460;42.732;-84.532;2024-03-07T15:50:26;22.40;32.50
40754;DHT22;26460;42.732;-84.532;2024-03-07T15:52:56;22.40;32.60
40754;DHT22;26460;42.732;-84.532;2024-03-07T15:55:24;22.50;32.70
40754;DHT22;26460;42.732;-84.532;2024-03-07T15:57:54;22.50;32.70